createdAt,value
2018-07-07T00:00:34.716Z,78.56
2018-07-07T00:01:34.733Z,78.85
2018-07-07T00:02:34.681Z,78.56
2018-07-07T00:03:34.706Z,79.14
2018-07-07T00:04:34.690Z,79.24
2018-07-07T00:05:34.702Z,78.94
2018-07-07T00:06:34.678Z,79.14
2018-07-07T00:07:34.732Z,78.94
2018-07-07T00:08:34.688Z,79.33
2018-07-07T00:09:34.719Z,79.14
2018-07-07T00:10:34.693Z,79.43
2018-07-07T00:11:34.688Z,79.33
2018-07-07T00:12:34.725Z,79.04
2018-07-07T00:13:34.698Z,79.24
2018-07-07T00:14:34.704Z,79.14
2018-07-07T00:15:34.718Z,79.43
2018-07-07T00:16:34.689Z,79.14
2018-07-07T00:17:34.734Z,79.62
2018-07-07T00:18:34.705Z,79.04
2018-07-07T00:19:34.717Z,79.14
2018-07-07T00:20:34.688Z,79.14
2018-07-07T00:21:34.698Z,79.24
2018-07-07T00:22:34.700Z,79.43
2018-07-07T00:23:34.737Z,79.24
2018-07-07T00:24:34.716Z,79.04
2018-07-07T00:25:34.752Z,79.14
2018-07-07T00:26:34.754Z,79.24
2018-07-07T00:27:34.716Z,78.94
2018-07-07T00:28:34.725Z,79.62
2018-07-07T00:29:34.757Z,79.52
2018-07-07T00:30:34.731Z,79.62
2018-07-07T00:31:34.747Z,79.72
2018-07-07T00:32:34.771Z,79.14
2018-07-07T00:33:34.744Z,79.43
2018-07-07T00:34:34.757Z,80.11
2018-07-07T00:35:34.719Z,79.91
2018-07-07T00:36:34.765Z,80.11
2018-07-07T00:37:34.728Z,80.11
2018-07-07T00:38:34.756Z,80.01
2018-07-07T00:39:34.763Z,79.04
2018-07-07T00:40:34.743Z,80.11
2018-07-07T00:41:34.729Z,80.49
2018-07-07T00:42:34.760Z,79.91
2018-07-07T00:43:34.770Z,79.82
2018-07-07T00:44:34.804Z,80.11
2018-07-07T00:45:34.752Z,79.52
2018-07-07T00:46:34.765Z,79.62
2018-07-07T00:47:34.764Z,79.52
2018-07-07T00:48:34.744Z,79.62
2018-07-07T00:49:34.779Z,79.82
2018-07-07T00:50:34.782Z,79.52
2018-07-07T00:51:34.767Z,79.91
2018-07-07T00:52:34.799Z,79.91
2018-07-07T00:53:34.781Z,79.82
2018-07-07T00:54:34.814Z,79.62
2018-07-07T00:55:34.772Z,79.04
2018-07-07T00:56:34.755Z,79.24
2018-07-07T00:57:34.784Z,79.43
2018-07-07T00:58:34.823Z,79.62
2018-07-07T00:59:34.821Z,79.43
2018-07-07T01:00:34.823Z,79.82
2018-07-07T01:01:34.781Z,80.2
2018-07-07T01:02:34.812Z,79.62
2018-07-07T01:03:34.807Z,79.24
2018-07-07T01:04:34.803Z,79.82
2018-07-07T01:05:34.805Z,78.94
2018-07-07T01:06:34.814Z,79.72
2018-07-07T01:07:34.840Z,79.82
2018-07-07T01:08:34.833Z,78.94
2018-07-07T01:09:34.865Z,79.04
2018-07-07T01:10:34.821Z,79.14
2018-07-07T01:11:34.844Z,79.24
2018-07-07T01:12:34.825Z,79.24
2018-07-07T01:13:34.862Z,79.14
2018-07-07T01:14:34.810Z,79.04
2018-07-07T01:15:34.824Z,78.94
2018-07-07T01:16:34.800Z,78.75
2018-07-07T01:17:34.836Z,78.85
2018-07-07T01:18:34.834Z,79.04
2018-07-07T01:19:34.794Z,79.14
2018-07-07T01:20:34.806Z,79.14
2018-07-07T01:21:34.818Z,79.24
2018-07-07T01:22:34.864Z,78.94
2018-07-07T01:23:34.873Z,79.33
2018-07-07T01:24:34.827Z,79.24
2018-07-07T01:25:34.870Z,79.24
2018-07-07T01:26:34.872Z,79.33
2018-07-07T01:27:34.887Z,79.33
2018-07-07T01:28:34.882Z,79.33
2018-07-07T01:29:34.866Z,78.94
2018-07-07T01:30:34.869Z,78.94
2018-07-07T01:31:34.854Z,79.33
2018-07-07T01:32:34.827Z,79.04
2018-07-07T01:33:34.889Z,79.04
2018-07-07T01:34:34.910Z,79.14
2018-07-07T01:35:34.904Z,79.14
2018-07-07T01:36:34.879Z,79.43
2018-07-07T01:37:34.892Z,79.91
2018-07-07T01:38:34.913Z,79.91
2018-07-07T01:39:34.872Z,79.91
2018-07-07T01:40:34.885Z,79.91
2018-07-07T01:41:34.866Z,79.91
2018-07-07T01:46:03.439Z,80.11
2018-07-07T01:47:03.412Z,80.01
2018-07-07T01:48:03.401Z,79.72
2018-07-07T01:49:03.426Z,80.11
2018-07-07T01:50:03.412Z,80.2
2018-07-07T01:51:03.413Z,80.2
2018-07-07T01:52:03.427Z,79.43
2018-07-07T01:53:03.401Z,79.72
2018-07-07T01:54:03.389Z,80.11
2018-07-07T01:55:03.488Z,79.43
2018-07-07T01:56:03.452Z,80.11
2018-07-07T01:57:03.407Z,79.43
2018-07-07T01:58:03.376Z,79.82
2018-07-07T01:59:03.450Z,79.52
2018-07-07T02:00:03.429Z,79.52
2018-07-07T02:01:03.461Z,80.11
2018-07-07T02:02:03.472Z,79.72
2018-07-07T02:03:03.468Z,80.01
2018-07-07T02:04:03.431Z,79.43
2018-07-07T02:05:03.456Z,79.43
2018-07-07T02:06:03.457Z,79.91
2018-07-07T02:07:03.466Z,80.2
2018-07-07T02:08:03.456Z,80.3
2018-07-07T02:09:03.465Z,80.11
2018-07-07T02:10:03.461Z,80.11
2018-07-07T02:11:03.426Z,80.4
2018-07-07T02:12:03.473Z,80.4
2018-07-07T02:13:03.449Z,79.82
2018-07-07T02:14:03.434Z,80.01
2018-07-07T02:15:03.465Z,80.11
2018-07-07T02:16:03.450Z,79.72
2018-07-07T02:17:03.464Z,79.62
2018-07-07T02:18:03.450Z,79.52
2018-07-07T02:19:03.463Z,79.72
2018-07-07T02:20:03.430Z,79.82
2018-07-07T02:21:03.476Z,79.04
2018-07-07T02:22:03.489Z,79.52
2018-07-07T02:23:03.437Z,80.11
2018-07-07T02:24:03.472Z,80.11
2018-07-07T02:25:03.492Z,79.52
2018-07-07T02:26:03.499Z,79.72
2018-07-07T02:27:03.521Z,79.52
2018-07-07T02:28:03.505Z,79.62
2018-07-07T02:30:22.490Z,79.14
2018-07-07T02:31:22.541Z,79.14
2018-07-07T02:32:22.472Z,79.24
2018-07-07T02:33:22.480Z,79.14
2018-07-07T02:34:22.588Z,79.14
2018-07-07T02:35:22.553Z,79.43
2018-07-07T02:36:22.522Z,79.24
2018-07-07T02:37:22.508Z,79.33
2018-07-07T02:38:22.519Z,79.24
2018-07-07T02:39:22.521Z,79.33
2018-07-07T02:40:22.501Z,79.33
2018-07-07T02:41:22.633Z,79.24
2018-07-07T02:42:22.513Z,79.82
2018-07-07T02:43:22.540Z,80.11
2018-07-07T02:44:22.548Z,79.91
2018-07-07T02:45:23.172Z,80.11
2018-07-07T02:46:22.701Z,79.91
2018-07-07T02:47:22.574Z,80.11
2018-07-07T02:48:22.495Z,80.11
2018-07-07T02:49:22.613Z,80.01
2018-07-07T02:50:22.584Z,79.62
2018-07-07T02:51:22.671Z,79.62
2018-07-07T02:52:22.509Z,79.43
2018-07-07T02:53:23.073Z,79.62
2018-07-07T02:54:22.491Z,79.43
2018-07-07T02:55:22.548Z,78.94
2018-07-07T02:56:22.535Z,79.62
2018-07-07T02:57:22.512Z,79.72
2018-07-07T02:58:22.488Z,79.82
2018-07-07T02:59:22.523Z,79.72
2018-07-07T03:00:22.551Z,79.72
2018-07-07T03:01:22.512Z,79.72
2018-07-07T03:02:22.543Z,79.43
2018-07-07T03:03:22.558Z,79.43
2018-07-07T03:04:22.495Z,79.43
2018-07-07T03:05:22.516Z,79.72
2018-07-07T03:06:22.588Z,79.62
2018-07-07T03:07:22.556Z,79.62
2018-07-07T03:08:22.509Z,79.62
2018-07-07T03:09:22.587Z,79.43
2018-07-07T03:10:22.570Z,79.62
2018-07-07T03:11:22.605Z,79.62
2018-07-07T03:12:22.505Z,79.33
2018-07-07T03:13:22.590Z,79.43
2018-07-07T03:14:22.518Z,79.52
2018-07-07T03:15:22.551Z,79.62
2018-07-07T03:16:22.586Z,79.82
2018-07-07T03:17:22.562Z,79.62
2018-07-07T03:18:22.515Z,79.62
2018-07-07T03:19:22.554Z,80.2
2018-07-07T03:20:22.534Z,80.2
2018-07-07T03:21:22.569Z,79.43
2018-07-07T03:22:22.617Z,79.43
2018-07-07T03:23:22.588Z,79.52
2018-07-07T03:24:22.603Z,79.62
2018-07-07T03:25:22.671Z,79.52
2018-07-07T03:26:22.567Z,79.62
2018-07-07T03:27:22.580Z,79.72
2018-07-07T03:28:22.565Z,79.43
2018-07-07T03:29:22.567Z,79.52
2018-07-07T03:30:22.555Z,79.52
2018-07-07T03:31:22.635Z,79.72
2018-07-07T03:32:22.611Z,80.01
2018-07-07T03:33:22.560Z,79.91
2018-07-07T03:34:22.668Z,80.01
2018-07-07T03:35:22.579Z,80.01
2018-07-07T03:40:39.503Z,79.91
2018-07-07T03:40:51.079Z,80.4
2018-07-07T03:41:51.034Z,80.2
2018-07-07T03:42:51.017Z,80.3
2018-07-07T03:43:51.042Z,80.01
2018-07-07T03:44:51.054Z,80.2
2018-07-07T03:45:51.409Z,80.11
2018-07-07T03:46:51.067Z,80.3
2018-07-07T03:47:51.079Z,80.11
2018-07-07T03:48:51.077Z,80.49
2018-07-07T03:49:51.056Z,80.01
2018-07-07T03:50:51.038Z,80.11
2018-07-07T03:51:51.066Z,79.91
2018-07-07T03:52:51.023Z,80.3
2018-07-07T03:53:51.034Z,80.11
2018-07-07T03:54:51.046Z,80.11
2018-07-07T03:55:51.074Z,80.2
2018-07-07T03:56:51.054Z,80.11
2018-07-07T03:57:51.103Z,79.14
2018-07-07T03:58:51.077Z,79.43
2018-07-07T03:59:51.048Z,79.82
2018-07-07T04:00:51.046Z,79.24
2018-07-07T04:01:51.134Z,79.72
2018-07-07T04:02:51.066Z,79.91
2018-07-07T04:03:51.064Z,80.11
2018-07-07T04:04:51.060Z,79.72
2018-07-07T04:05:51.056Z,79.62
2018-07-07T04:06:51.083Z,79.52
2018-07-07T04:07:51.075Z,79.14
2018-07-07T04:08:51.032Z,79.24
2018-07-07T04:09:51.111Z,78.94
2018-07-07T04:10:51.045Z,79.33
2018-07-07T04:11:51.103Z,79.43
2018-07-07T04:12:51.087Z,79.33
2018-07-07T04:13:51.056Z,78.85
2018-07-07T04:14:51.097Z,78.94
2018-07-07T04:15:51.062Z,78.85
2018-07-07T04:16:51.128Z,78.75
2018-07-07T04:17:51.092Z,78.85
2018-07-07T04:18:51.088Z,78.94
2018-07-07T04:19:51.095Z,78.94
2018-07-07T04:20:51.097Z,78.85
2018-07-07T04:21:51.067Z,79.04
2018-07-07T04:22:51.094Z,78.85
2018-07-07T04:23:51.080Z,78.66
2018-07-07T04:24:51.127Z,79.04
2018-07-07T04:25:51.132Z,78.75
2018-07-07T04:26:51.128Z,79.04
2018-07-07T04:27:51.092Z,78.94
2018-07-07T04:28:51.102Z,79.14
2018-07-07T04:29:51.113Z,79.24
2018-07-07T04:30:51.131Z,78.94
2018-07-07T04:31:51.134Z,79.14
2018-07-07T04:32:51.081Z,78.94
2018-07-07T04:33:51.137Z,79.04
2018-07-07T04:34:51.141Z,78.75
2018-07-07T04:35:51.143Z,78.94
2018-07-07T04:36:51.129Z,78.94
2018-07-07T04:37:51.111Z,78.94
2018-07-07T04:38:51.110Z,78.94
2018-07-07T04:39:51.153Z,78.46
2018-07-07T04:40:51.164Z,79.04
2018-07-07T04:41:51.200Z,79.04
2018-07-07T04:42:51.143Z,79.43
2018-07-07T04:43:51.135Z,79.24
2018-07-07T04:44:51.133Z,79.04
2018-07-07T04:45:51.202Z,78.94
2018-07-07T04:46:51.139Z,79.33
2018-07-07T04:47:51.150Z,78.46
2018-07-07T04:48:51.204Z,78.94
2018-07-07T04:49:51.173Z,78.94
2018-07-07T04:50:51.177Z,78.94
2018-07-07T04:51:51.175Z,78.94
2018-07-07T04:52:51.191Z,78.75
2018-07-07T04:53:51.134Z,78.75
2018-07-07T04:54:51.169Z,79.14
2018-07-07T04:55:51.164Z,79.43
2018-07-07T04:56:51.155Z,79.33
2018-07-07T04:57:51.135Z,78.85
2018-07-07T04:58:51.152Z,78.75
2018-07-07T04:59:51.405Z,78.85
2018-07-07T05:00:51.160Z,79.04
2018-07-07T05:01:51.200Z,78.66
2018-07-07T05:02:51.199Z,78.36
2018-07-07T05:03:51.175Z,78.75
2018-07-07T05:04:51.159Z,78.46
2018-07-07T05:05:51.174Z,78.85
2018-07-07T05:06:51.192Z,78.66
2018-07-07T05:07:51.160Z,78.66
2018-07-07T05:08:51.219Z,78.85
2018-07-07T05:09:51.165Z,78.66
2018-07-07T05:10:51.233Z,78.46
2018-07-07T05:11:51.182Z,79.04
2018-07-07T05:12:51.208Z,78.75
2018-07-07T05:13:51.197Z,78.94
2018-07-07T05:14:51.222Z,78.66
2018-07-07T05:15:51.181Z,78.66
2018-07-07T05:16:51.195Z,78.75
2018-07-07T05:17:51.165Z,78.66
2018-07-07T05:18:51.167Z,79.14
2018-07-07T05:19:51.181Z,79.04
2018-07-07T05:20:51.194Z,79.14
2018-07-07T05:21:51.321Z,79.43
2018-07-07T05:22:51.195Z,79.24
2018-07-07T05:23:51.213Z,79.04
2018-07-07T05:24:51.235Z,79.24
2018-07-07T05:25:51.243Z,79.24
2018-07-07T05:26:51.267Z,79.24
2018-07-07T05:27:51.202Z,79.24
2018-07-07T05:28:51.223Z,79.33
2018-07-07T05:29:51.243Z,79.04
2018-07-07T05:30:51.172Z,78.75
2018-07-07T05:31:51.312Z,79.33
2018-07-07T05:32:51.211Z,79.33
2018-07-07T05:33:51.272Z,79.24
2018-07-07T05:34:51.224Z,79.24
2018-07-07T05:35:51.304Z,79.33
2018-07-07T05:36:51.222Z,78.94
2018-07-07T05:37:51.195Z,78.94
2018-07-07T05:38:51.238Z,79.14
2018-07-07T05:39:51.256Z,79.04
2018-07-07T05:40:51.213Z,78.94
2018-07-07T05:41:51.268Z,79.04
2018-07-07T05:42:51.248Z,79.24
2018-07-07T05:43:51.294Z,79.33
2018-07-07T05:44:51.277Z,78.94
2018-07-07T05:45:51.256Z,79.14
2018-07-07T05:46:51.315Z,79.43
2018-07-07T05:47:51.298Z,78.75
2018-07-07T05:48:51.240Z,78.85
2018-07-07T05:49:51.350Z,78.75
2018-07-07T05:50:53.078Z,78.36
2018-07-07T05:51:51.416Z,78.94
2018-07-07T05:58:31.068Z,77.78
2018-07-07T05:59:31.018Z,76.91
2018-07-07T06:00:31.070Z,74.98
2018-07-07T06:01:31.023Z,76.1
2018-07-07T06:02:31.080Z,77.07
2018-07-07T06:03:31.071Z,77.11
2018-07-07T06:04:31.028Z,76.87
2018-07-07T06:05:31.029Z,76.82
2018-07-07T06:06:31.041Z,77.3
2018-07-07T06:07:31.092Z,77.07
2018-07-07T06:08:31.136Z,77.07
2018-07-07T06:09:31.101Z,76.2
2018-07-07T06:10:31.043Z,76.68
2018-07-07T06:11:31.070Z,76.29
2018-07-07T06:12:31.206Z,76.1
2018-07-07T06:13:31.094Z,75.81
2018-07-07T06:14:31.207Z,75.81
2018-07-07T06:15:31.075Z,74.75
2018-07-07T06:16:31.066Z,74.36
2018-07-07T06:17:31.132Z,73.88
2018-07-07T06:18:31.089Z,75.13
2018-07-07T06:19:31.096Z,74.36
2018-07-07T06:20:31.049Z,73.97
2018-07-07T06:21:31.104Z,73.88
2018-07-07T06:22:31.035Z,74.85
2018-07-07T06:23:31.076Z,74.75
2018-07-07T06:24:31.108Z,74.27
2018-07-07T06:25:31.057Z,74.94
2018-07-07T06:26:31.123Z,74.07
2018-07-07T06:27:31.063Z,74.07
2018-07-07T06:28:31.072Z,74.75
2018-07-07T06:29:31.100Z,74.36
2018-07-07T06:30:31.091Z,74.55
2018-07-07T06:31:31.060Z,74.75
2018-07-07T06:32:31.068Z,74.85
2018-07-07T06:33:31.135Z,74.75
2018-07-07T06:34:31.076Z,74.27
2018-07-07T06:35:31.088Z,73.88
2018-07-07T06:36:31.102Z,74.85
2018-07-07T06:37:31.136Z,74.27
2018-07-07T06:38:31.091Z,73.78
2018-07-07T06:39:31.098Z,73.82
2018-07-07T06:40:31.104Z,74.07
2018-07-07T06:41:31.076Z,73.97
2018-07-07T06:42:31.116Z,72.72
2018-07-07T06:43:31.065Z,72.91
2018-07-07T06:44:31.136Z,73.3
2018-07-07T06:45:31.079Z,73.3
2018-07-07T06:46:31.120Z,73.1
2018-07-07T06:47:31.662Z,73.39
2018-07-07T06:48:31.189Z,73.3
2018-07-07T06:49:31.144Z,73.39
2018-07-07T06:50:31.145Z,73.3
2018-07-07T06:51:31.096Z,73.49
2018-07-07T06:52:31.123Z,73.59
2018-07-07T06:53:31.096Z,73.2
2018-07-07T06:54:31.110Z,72.52
2018-07-07T06:55:31.115Z,71.75
2018-07-07T06:56:31.134Z,72.81
2018-07-07T06:57:31.095Z,72.62
2018-07-07T06:58:31.118Z,72.33
2018-07-07T06:59:31.154Z,73.39
2018-07-07T07:00:31.113Z,73.49
2018-07-07T07:01:31.145Z,73.59
2018-07-07T07:02:31.132Z,72.81
2018-07-07T07:03:31.218Z,72.52
2018-07-07T07:04:31.182Z,71.75
2018-07-07T07:05:31.158Z,71.36
2018-07-07T07:06:31.206Z,70.78
2018-07-07T07:07:31.184Z,71.17
2018-07-07T07:08:31.181Z,70.88
2018-07-07T07:09:32.429Z,70.3
2018-07-07T07:10:31.154Z,70.5
2018-07-07T07:11:31.208Z,70.88
2018-07-07T07:12:31.187Z,70.88
2018-07-07T07:13:31.197Z,70.98
2018-07-07T07:14:31.171Z,71.36
2018-07-07T07:15:31.176Z,71.36
2018-07-07T07:16:31.181Z,71.17
2018-07-07T07:17:31.189Z,71.26
2018-07-07T07:18:31.191Z,70.98
2018-07-07T07:19:31.176Z,70.78
2018-07-07T07:20:31.157Z,71.26
2018-07-07T07:21:31.252Z,71.26
2018-07-07T07:22:31.249Z,70.78
2018-07-07T07:23:31.194Z,70.78
2018-07-07T07:24:31.159Z,70.59
2018-07-07T07:25:31.165Z,69.33
2018-07-07T07:26:31.199Z,69.14
2018-07-07T07:27:31.175Z,68.46
2018-07-07T07:28:31.196Z,69.2
2018-07-07T07:29:31.191Z,69.1
2018-07-07T07:30:31.182Z,69.53
2018-07-07T07:31:31.177Z,69.1
2018-07-07T07:32:31.155Z,69.4
2018-07-07T07:33:31.238Z,68.95
2018-07-07T07:34:31.173Z,69.3
2018-07-07T07:35:31.181Z,68.52
2018-07-07T07:36:31.179Z,68.82
2018-07-07T07:37:31.191Z,68.82
2018-07-07T07:38:31.204Z,69.01
2018-07-07T07:39:31.181Z,69.59
2018-07-07T07:40:31.199Z,68.82
2018-07-07T07:41:31.222Z,68.33
2018-07-07T07:42:31.256Z,68.43
2018-07-07T07:43:31.243Z,68.14
2018-07-07T07:44:31.217Z,69.1
2018-07-07T07:45:31.100Z,69.1
2018-07-07T07:46:31.146Z,69.98
2018-07-07T07:47:31.134Z,69.68
2018-07-07T07:48:31.102Z,69.59
2018-07-07T07:49:31.139Z,70.07
2018-07-07T07:50:31.146Z,69.88
2018-07-07T07:51:31.178Z,69.68
2018-07-07T07:52:31.140Z,69.82
2018-07-07T07:53:31.152Z,69.49
2018-07-07T07:54:31.202Z,69.78
2018-07-07T07:55:31.243Z,70.01
2018-07-07T07:56:31.243Z,69.53
2018-07-07T07:57:31.660Z,68.17
2018-07-07T07:58:31.244Z,68.24
2018-07-07T07:59:31.262Z,68.62
2018-07-07T08:00:31.244Z,69.1
2018-07-07T08:01:31.247Z,68.43
2018-07-07T08:02:31.263Z,68.14
2018-07-07T08:03:31.258Z,68.24
2018-07-07T08:04:31.216Z,68.14
2018-07-07T08:05:31.227Z,67.85
2018-07-07T08:06:31.245Z,68.14
2018-07-07T08:07:31.269Z,69.01
2018-07-07T08:08:31.260Z,68.52
2018-07-07T08:09:31.250Z,67.94
2018-07-07T08:10:31.273Z,67.46
2018-07-07T08:11:31.239Z,67.66
2018-07-07T08:12:31.299Z,67.94
2018-07-07T08:13:31.330Z,67.85
2018-07-07T08:14:31.274Z,67.46
2018-07-07T08:15:31.242Z,67.66
2018-07-07T08:16:31.241Z,68.33
2018-07-07T08:17:31.262Z,67.94
2018-07-07T08:18:31.316Z,68.24
2018-07-07T08:19:31.267Z,68.72
2018-07-07T08:20:31.304Z,68.52
2018-07-07T08:21:31.257Z,68.24
2018-07-07T08:22:31.325Z,68.14
2018-07-07T08:23:31.301Z,67.66
2018-07-07T08:24:31.325Z,67.08
2018-07-07T08:25:31.311Z,67.08
2018-07-07T08:26:31.292Z,67.75
2018-07-07T08:27:31.266Z,68.14
2018-07-07T08:28:31.381Z,67.66
2018-07-07T08:29:31.305Z,68.33
2018-07-07T08:30:31.289Z,68.72
2018-07-07T08:32:50.424Z,67.85
2018-07-07T08:33:50.395Z,68.14
2018-07-07T08:34:50.439Z,68.04
2018-07-07T08:35:50.451Z,67.46
2018-07-07T08:36:50.423Z,68.24
2018-07-07T08:37:50.444Z,67.75
2018-07-07T08:38:50.466Z,68.14
2018-07-07T08:39:50.435Z,67.66
2018-07-07T08:40:50.481Z,68.14
2018-07-07T08:41:50.521Z,68.14
2018-07-07T08:42:50.448Z,67.79
2018-07-07T08:43:50.401Z,67.36
2018-07-07T08:44:50.507Z,67.36
2018-07-07T08:45:50.407Z,67.75
2018-07-07T08:46:50.466Z,68.04
2018-07-07T08:47:50.434Z,67.94
2018-07-07T08:48:50.477Z,67.94
2018-07-07T08:49:50.470Z,67.46
2018-07-07T08:50:50.420Z,67.56
2018-07-07T08:51:50.449Z,67.94
2018-07-07T08:52:50.465Z,67.56
2018-07-07T08:53:50.493Z,67.98
2018-07-07T08:54:50.472Z,68.04
2018-07-07T08:55:50.430Z,67.75
2018-07-07T08:56:50.467Z,67.56
2018-07-07T08:57:50.466Z,66.98
2018-07-07T08:58:50.483Z,68.08
2018-07-07T08:59:50.511Z,67.4
2018-07-07T09:00:50.491Z,68.27
2018-07-07T09:01:50.466Z,67.46
2018-07-07T09:02:50.454Z,67.11
2018-07-07T09:03:51.067Z,67.36
2018-07-07T09:04:50.591Z,67.75
2018-07-07T09:05:50.518Z,68.56
2018-07-07T09:06:50.499Z,67.69
2018-07-07T09:07:50.526Z,68.04
2018-07-07T09:08:50.456Z,67.94
2018-07-07T09:09:50.519Z,67.46
2018-07-07T09:10:50.507Z,68.04
2018-07-07T09:11:50.452Z,68.17
2018-07-07T09:12:50.496Z,67.94
2018-07-07T09:13:50.519Z,68.08
2018-07-07T09:14:50.530Z,68.27
2018-07-07T09:15:50.509Z,68.17
2018-07-07T09:16:50.459Z,68.27
2018-07-07T09:17:50.494Z,68.37
2018-07-07T09:22:19.570Z,67.79
2018-07-07T09:23:19.581Z,67.98
2018-07-07T09:24:19.514Z,67.01
2018-07-07T09:25:19.544Z,67.11
2018-07-07T09:26:19.548Z,67.11
2018-07-07T09:27:19.559Z,67.59
2018-07-07T09:28:19.548Z,67.4
2018-07-07T09:29:19.547Z,67.59
2018-07-07T09:30:19.559Z,67.59
2018-07-07T09:31:19.585Z,67.21
2018-07-07T09:32:19.633Z,67.01
2018-07-07T09:39:47.905Z,66.53
2018-07-07T09:39:59.320Z,66.63
2018-07-07T09:40:59.324Z,66.72
2018-07-07T09:41:59.353Z,66.91
2018-07-07T09:42:59.318Z,66.82
2018-07-07T09:43:59.342Z,66.91
2018-07-07T09:44:59.348Z,66.82
2018-07-07T09:45:59.331Z,66.82
2018-07-07T09:46:59.343Z,67.01
2018-07-07T09:47:59.344Z,66.72
2018-07-07T09:48:59.326Z,66.63
2018-07-07T09:49:59.349Z,66.53
2018-07-07T09:50:59.339Z,66.53
2018-07-07T09:51:59.348Z,66.72
2018-07-07T09:53:00.046Z,66.63
2018-07-07T09:53:59.366Z,66.91
2018-07-07T09:54:59.374Z,66.72
2018-07-07T09:55:59.346Z,67.01
2018-07-07T09:56:59.352Z,67.11
2018-07-07T09:57:59.453Z,67.01
2018-07-07T09:58:59.372Z,67.21
2018-07-07T09:59:59.369Z,67.11
2018-07-07T10:00:59.380Z,66.82
2018-07-07T10:01:59.467Z,67.01
2018-07-07T10:02:59.366Z,67.11
2018-07-07T10:03:59.368Z,67.01
2018-07-07T10:04:59.382Z,67.3
2018-07-07T10:05:59.363Z,67.11
2018-07-07T10:06:59.491Z,67.3
2018-07-07T10:07:59.512Z,66.72
2018-07-07T10:08:59.488Z,66.91
2018-07-07T10:09:59.364Z,67.11
2018-07-07T10:10:59.384Z,67.11
2018-07-07T10:11:59.402Z,67.01
2018-07-07T10:12:59.432Z,67.01
2018-07-07T10:13:59.385Z,67.69
2018-07-07T10:14:59.395Z,67.49
2018-07-07T10:15:59.392Z,67.01
2018-07-07T10:16:59.437Z,67.11
2018-07-07T10:18:00.334Z,67.49
2018-07-07T10:18:59.374Z,67.59
2018-07-07T10:24:17.406Z,67.01
2018-07-07T10:24:29.737Z,66.72
2018-07-07T10:25:29.687Z,67.21
2018-07-07T10:26:29.646Z,67.11
2018-07-07T10:27:29.659Z,67.11
2018-07-07T10:28:30.115Z,67.11
2018-07-07T10:29:29.761Z,67.11
2018-07-07T10:30:29.718Z,66.72
2018-07-07T10:31:29.760Z,66.53
2018-07-07T10:32:29.729Z,66.63
2018-07-07T10:33:29.693Z,65.95
2018-07-07T10:34:29.752Z,66.82
2018-07-07T10:35:29.867Z,66.91
2018-07-07T10:36:29.756Z,66.14
2018-07-07T10:37:29.817Z,66.33
2018-07-07T10:38:29.768Z,66.24
2018-07-07T10:39:29.716Z,66.72
2018-07-07T10:40:29.716Z,66.82
2018-07-07T10:41:29.730Z,66.43
2018-07-07T10:42:29.754Z,66.72
2018-07-07T10:43:29.684Z,66.91
2018-07-07T10:44:29.722Z,66.82
2018-07-07T10:45:29.809Z,66.72
2018-07-07T10:46:29.699Z,67.11
2018-07-07T10:47:29.854Z,67.11
2018-07-07T10:48:29.759Z,67.11
2018-07-07T10:49:29.737Z,67.01
2018-07-07T10:50:29.776Z,67.11
2018-07-07T10:51:29.756Z,67.11
2018-07-07T10:52:29.773Z,67.11
2018-07-07T10:53:29.767Z,67.11
2018-07-07T10:54:29.792Z,67.21
2018-07-07T10:59:01.176Z,66.63
2018-07-07T11:00:01.167Z,66.72
2018-07-07T11:01:01.247Z,66.63
2018-07-07T11:02:01.168Z,67.11
2018-07-07T11:03:01.180Z,66.72
2018-07-07T11:04:01.206Z,67.11
2018-07-07T11:05:01.227Z,67.11
2018-07-07T11:06:01.154Z,66.91
2018-07-07T11:07:01.197Z,66.82
2018-07-07T11:08:01.243Z,66.91
2018-07-07T11:09:01.251Z,66.91
2018-07-07T11:10:01.167Z,67.11
2018-07-07T11:11:01.170Z,66.33
2018-07-07T11:12:01.295Z,66.43
2018-07-07T11:13:01.151Z,66.63
2018-07-07T11:14:01.132Z,66.63
2018-07-07T11:15:01.251Z,67.3
2018-07-07T11:16:01.244Z,67.11
2018-07-07T11:17:01.244Z,67.11
2018-07-07T11:18:01.186Z,67.11
2018-07-07T11:19:01.212Z,67.21
2018-07-07T11:20:01.290Z,67.11
2018-07-07T11:21:01.231Z,67.11
2018-07-07T11:22:01.235Z,67.11
2018-07-07T11:23:01.211Z,67.49
2018-07-07T11:24:01.192Z,67.59
2018-07-07T11:25:01.225Z,67.49
2018-07-07T11:26:01.208Z,67.49
2018-07-07T11:27:01.256Z,67.49
2018-07-07T11:28:01.219Z,67.4
2018-07-07T11:29:01.314Z,67.4
2018-07-07T11:30:01.246Z,67.63
2018-07-07T11:31:01.281Z,67.69
2018-07-07T11:32:01.252Z,67.82
2018-07-07T11:33:01.262Z,67.59
2018-07-07T11:34:01.309Z,67.59
2018-07-07T11:35:01.188Z,67.79
2018-07-07T11:36:01.219Z,67.43
2018-07-07T11:37:01.909Z,67.49
2018-07-07T11:38:01.232Z,67.79
2018-07-07T11:39:01.241Z,67.4
2018-07-07T11:40:01.243Z,67.88
2018-07-07T11:41:01.205Z,67.98
2018-07-07T11:42:01.234Z,67.98
2018-07-07T11:44:05.880Z,67.88
2018-07-07T11:44:17.426Z,67.79
2018-07-07T11:45:17.328Z,67.59
2018-07-07T11:46:17.422Z,68.08
2018-07-07T11:47:17.397Z,68.08
2018-07-07T11:48:17.403Z,68.17
2018-07-07T11:49:17.355Z,67.98
2018-07-07T11:50:17.443Z,67.3
2018-07-07T11:51:17.421Z,67.21
2018-07-07T11:52:17.441Z,66.63
2018-07-07T11:53:17.466Z,67.4
2018-07-07T11:54:17.390Z,67.98
2018-07-07T11:55:17.371Z,68.17
2018-07-07T11:56:17.361Z,68.17
2018-07-07T11:57:17.437Z,68.46
2018-07-07T11:58:17.414Z,68.17
2018-07-07T11:59:17.350Z,68.08
2018-07-07T12:00:17.380Z,68.27
2018-07-07T12:01:17.394Z,68.27
2018-07-07T12:02:17.530Z,68.17
2018-07-07T12:03:17.411Z,68.17
2018-07-07T12:04:17.402Z,68.21
2018-07-07T12:05:17.440Z,68.17
2018-07-07T12:06:17.402Z,68.17
2018-07-07T12:07:17.500Z,67.4
2018-07-07T12:08:17.496Z,68.08
2018-07-07T12:09:18.602Z,68.17
2018-07-07T12:10:17.445Z,68.21
2018-07-07T12:11:17.558Z,67.79
2018-07-07T12:12:17.431Z,67.88
2018-07-07T12:13:17.435Z,67.69
2018-07-07T12:14:17.420Z,68.17
2018-07-07T12:15:17.383Z,67.11
2018-07-07T12:16:17.381Z,66.72
2018-07-07T12:17:17.463Z,68.17
2018-07-07T12:18:17.445Z,68.46
2018-07-07T12:19:17.477Z,68.46
2018-07-07T12:20:17.406Z,67.98
2018-07-07T12:21:17.439Z,67.98
2018-07-07T12:22:17.429Z,68.27
2018-07-07T12:23:17.455Z,68.27
2018-07-07T12:24:17.456Z,68.08
2018-07-07T12:25:17.484Z,68.3
2018-07-07T12:26:17.503Z,68.01
2018-07-07T12:27:17.477Z,68.56
2018-07-07T12:28:17.456Z,68.75
2018-07-07T12:29:17.464Z,68.17
2018-07-07T12:30:17.452Z,68.01
2018-07-07T12:31:17.527Z,67.98
2018-07-07T12:32:17.416Z,68.27
2018-07-07T12:33:17.542Z,65.95
2018-07-07T12:34:17.501Z,67.21
2018-07-07T12:35:17.543Z,67.72
2018-07-07T12:36:17.536Z,68.08
2018-07-07T12:37:17.456Z,68.56
2018-07-07T12:38:17.455Z,67.69
2018-07-07T12:39:18.817Z,68.08
2018-07-07T12:40:17.746Z,67.4
2018-07-07T12:41:17.458Z,66.63
2018-07-07T12:42:17.477Z,67.3
2018-07-07T12:44:37.268Z,66.91
2018-07-07T12:49:55.163Z,67.53
2018-07-07T12:50:06.931Z,67.72
2018-07-07T12:51:06.936Z,66.56
2018-07-07T12:52:06.968Z,65.85
2018-07-07T12:53:07.974Z,67.05
2018-07-07T12:54:06.939Z,65.79
2018-07-07T12:55:07.009Z,63.85
2018-07-07T12:56:06.969Z,63.14
2018-07-07T12:57:06.943Z,63.53
2018-07-07T12:58:06.933Z,63.63
2018-07-07T12:59:06.932Z,62.69
2018-07-07T13:04:24.493Z,63.85
2018-07-07T13:04:36.020Z,65.66
2018-07-07T13:05:36.004Z,66.72
2018-07-07T13:06:35.986Z,65.4
2018-07-07T13:07:36.011Z,66.43
2018-07-07T13:08:35.996Z,66.82
2018-07-07T13:09:36.341Z,67.33
2018-07-07T13:10:36.035Z,67.33
2018-07-07T13:11:35.997Z,67.05
2018-07-07T13:12:36.026Z,66.95
2018-07-07T13:13:36.065Z,66.85
2018-07-07T13:14:36.023Z,66.75
2018-07-07T13:15:36.047Z,67.14
2018-07-07T13:16:36.033Z,67.14
2018-07-07T13:17:36.059Z,67.01
2018-07-07T13:18:36.019Z,67.05
2018-07-07T13:19:37.058Z,67.14
2018-07-07T13:20:36.026Z,67.14
2018-07-07T13:21:36.000Z,66.75
2018-07-07T13:22:35.983Z,67.24
2018-07-07T13:23:36.032Z,67.11
2018-07-07T13:24:36.035Z,67.14
2018-07-07T13:25:36.065Z,67.14
2018-07-07T13:26:36.123Z,66.91
2018-07-07T13:27:36.049Z,67.14
2018-07-07T13:28:36.038Z,67.05
2018-07-07T13:29:36.597Z,67.53
2018-07-07T13:30:36.038Z,67.05
2018-07-07T13:31:36.066Z,67.43
2018-07-07T13:32:36.091Z,67.53
2018-07-07T13:33:36.064Z,67.14
2018-07-07T13:34:36.014Z,67.14